Time;durP1;ratioP1;P1;durP2;ratioP2;P2;SDS_P1;SDS_P2;PMS_P1;PMS_P2;Temp;Humidity;BMP_temperature;BMP_pressure;BME280_temperature;BME280_humidity;BME280_pressure;Samples;Min_cycle;Max_cycle;Signal;HPM_P1;HPM_P2
2022/07/21 00:01:07;;;;;;;0.63;0.60;;;;;;;;;;5027877;28;20160;-68
2022/07/21 00:03:36;;;;;;;1.10;0.70;;;;;;;;;;5031009;28;20046;-69
2022/07/21 00:06:07;;;;;;;2.83;0.70;;;;;;;;;;5028186;28;20136;-68
2022/07/21 00:08:37;;;;;;;1.20;0.68;;;;;;;;;;5037999;28;20072;-69
2022/07/21 00:11:08;;;;;;;0.80;0.70;;;;;;;;;;5034707;28;20087;-69
2022/07/21 00:13:36;;;;;;;0.47;0.30;;;;;;;;;;5037047;28;20092;-69
2022/07/21 00:16:11;;;;;;;4.43;1.13;;;;;;;;;;5032831;28;20177;-69
2022/07/21 00:18:39;;;;;;;2.00;0.70;;;;;;;;;;5036202;28;20053;-69
2022/07/21 00:21:08;;;;;;;7.88;0.85;;;;;;;;;;5029380;28;20564;-68
2022/07/21 00:23:38;;;;;;;0.95;0.70;;;;;;;;;;5033967;28;20085;-68
2022/07/21 00:26:09;;;;;;;0.95;0.50;;;;;;;;;;5032719;28;20542;-68
2022/07/21 00:28:37;;;;;;;0.30;0.30;;;;;;;;;;5031237;28;20038;-69
2022/07/21 00:31:09;;;;;;;1.15;0.40;;;;;;;;;;5034576;28;20041;-68
2022/07/21 00:33:37;;;;;;;2.30;1.08;;;;;;;;;;5035564;28;20055;-68
2022/07/21 00:36:09;;;;;;;1.65;0.70;;;;;;;;;;5026857;28;20136;-68
2022/07/21 00:38:39;;;;;;;2.13;0.82;;;;;;;;;;5034836;28;20077;-68
2022/07/21 00:41:13;;;;;;;2.38;0.85;;;;;;;;;;5038419;28;20057;-69
2022/07/21 00:43:41;;;;;;;0.98;0.85;;;;;;;;;;5033093;28;20049;-68
2022/07/21 00:46:10;;;;;;;1.38;0.60;;;;;;;;;;5035311;28;20127;-68
2022/07/21 00:48:39;;;;;;;1.15;0.95;;;;;;;;;;5033985;28;20045;-68
2022/07/21 00:51:07;;;;;;;0.95;0.50;;;;;;;;;;5039700;28;20149;-68
2022/07/21 00:53:35;;;;;;;1.20;0.50;;;;;;;;;;5034169;28;20049;-68
2022/07/21 00:56:08;;;;;;;1.08;0.40;;;;;;;;;;5029207;28;20785;-68
2022/07/21 00:58:36;;;;;;;1.00;0.47;;;;;;;;;;5033103;28;20123;-68
2022/07/21 01:01:07;;;;;;;2.55;0.93;;;;;;;;;;5027376;28;20096;-68
2022/07/21 01:03:37;;;;;;;1.75;0.70;;;;;;;;;;5031782;28;20444;-68
2022/07/21 01:06:08;;;;;;;1.00;0.50;;;;;;;;;;5024721;28;21029;-68
2022/07/21 01:08:37;;;;;;;2.47;1.33;;;;;;;;;;5023163;28;20493;-69
2022/07/21 01:11:09;;;;;;;2.03;0.63;;;;;;;;;;5032470;28;20058;-69
2022/07/21 01:13:41;;;;;;;0.57;0.50;;;;;;;;;;5032194;28;20123;-68
2022/07/21 01:16:10;;;;;;;1.05;0.68;;;;;;;;;;5030389;28;20139;-69
2022/07/21 01:18:39;;;;;;;0.63;0.43;;;;;;;;;;5032275;28;20052;-68
2022/07/21 01:21:14;;;;;;;0.98;0.47;;;;;;;;;;5040835;28;20056;-68
2022/07/21 01:23:43;;;;;;;0.55;0.55;;;;;;;;;;5023840;28;20501;-68
2022/07/21 01:26:11;;;;;;;1.13;0.63;;;;;;;;;;5029771;28;20088;-68
2022/07/21 01:28:40;;;;;;;0.65;0.60;;;;;;;;;;5024950;28;20533;-68
2022/07/21 01:31:08;;;;;;;0.88;0.73;;;;;;;;;;5029397;28;20045;-68
2022/07/21 01:33:37;;;;;;;1.13;0.52;;;;;;;;;;5029033;28;20103;-68
2022/07/21 01:36:09;;;;;;;0.63;0.47;;;;;;;;;;5036493;28;20091;-68
2022/07/21 01:41:32;;;;;;;0.70;0.60;;;;;;;;;;5033776;28;20159;-68
2022/07/21 01:44:02;;;;;;;1.90;1.15;;;;;;;;;;5032337;28;20045;-68
2022/07/21 01:46:32;;;;;;;1.30;0.88;;;;;;;;;;5030178;28;20138;-68
2022/07/21 01:49:01;;;;;;;0.82;0.73;;;;;;;;;;5027250;28;20480;-68
2022/07/21 01:51:29;;;;;;;0.43;0.38;;;;;;;;;;5027785;28;20087;-68
2022/07/21 01:53:59;;;;;;;0.80;0.75;;;;;;;;;;5032195;28;20053;-69
2022/07/21 01:56:28;;;;;;;1.83;0.70;;;;;;;;;;5029063;28;20585;-68
2022/07/21 01:58:57;;;;;;;0.88;0.60;;;;;;;;;;5031726;28;20140;-68
2022/07/21 02:01:27;;;;;;;1.17;0.68;;;;;;;;;;5027431;28;20493;-68
2022/07/21 02:03:56;;;;;;;1.85;0.98;;;;;;;;;;5036473;28;20114;-68
2022/07/21 02:06:24;;;;;;;0.80;0.60;;;;;;;;;;5029710;28;20045;-68
2022/07/21 02:08:52;;;;;;;0.22;0.22;;;;;;;;;;5030060;28;20307;-68
2022/07/21 02:11:23;;;;;;;0.82;0.40;;;;;;;;;;5029733;28;20124;-69
2022/07/21 02:13:52;;;;;;;0.68;0.60;;;;;;;;;;5028358;28;20296;-68
2022/07/21 02:16:21;;;;;;;1.45;1.15;;;;;;;;;;5028993;28;20407;-68
2022/07/21 02:18:49;;;;;;;2.78;0.80;;;;;;;;;;5027890;28;20559;-68
2022/07/21 02:21:18;;;;;;;0.65;0.57;;;;;;;;;;5029819;28;20045;-68
2022/07/21 02:23:47;;;;;;;1.38;0.90;;;;;;;;;;5028583;28;20136;-69
2022/07/21 02:26:15;;;;;;;1.88;0.82;;;;;;;;;;5031663;28;20472;-68
2022/07/21 02:28:45;;;;;;;0.73;0.50;;;;;;;;;;5027167;28;20061;-69
2022/07/21 02:31:14;;;;;;;0.30;0.30;;;;;;;;;;5029114;28;20091;-68
2022/07/21 02:33:42;;;;;;;1.45;0.80;;;;;;;;;;5031705;28;20037;-69
2022/07/21 02:36:11;;;;;;;1.20;0.57;;;;;;;;;;5029146;28;20072;-69
2022/07/21 02:38:39;;;;;;;1.70;1.08;;;;;;;;;;5032867;28;20132;-68
2022/07/21 02:41:08;;;;;;;1.50;0.47;;;;;;;;;;5029249;28;20065;-69
2022/07/21 02:43:36;;;;;;;2.35;0.90;;;;;;;;;;5027993;28;20061;-69
2022/07/21 02:46:09;;;;;;;1.10;0.55;;;;;;;;;;5023506;28;20089;-69
2022/07/21 02:48:37;;;;;;;1.33;0.70;;;;;;;;;;5025207;28;20572;-68
2022/07/21 02:51:09;;;;;;;1.45;0.80;;;;;;;;;;5026550;28;20085;-68
2022/07/21 02:53:37;;;;;;;1.45;0.50;;;;;;;;;;5024018;28;20128;-68
2022/07/21 02:56:09;;;;;;;0.75;0.60;;;;;;;;;;5027319;28;20049;-68
2022/07/21 02:58:38;;;;;;;1.13;1.00;;;;;;;;;;5027620;28;20129;-68
2022/07/21 03:01:10;;;;;;;1.45;0.77;;;;;;;;;;5027130;28;20056;-69
2022/07/21 03:03:39;;;;;;;1.48;0.82;;;;;;;;;;5024961;28;20047;-69
2022/07/21 03:06:08;;;;;;;0.90;0.63;;;;;;;;;;5027339;28;20049;-69
2022/07/21 03:08:36;;;;;;;1.00;0.50;;;;;;;;;;5025927;28;20818;-68
2022/07/21 03:11:07;;;;;;;1.73;0.80;;;;;;;;;;5028252;28;20096;-69
2022/07/21 03:13:37;;;;;;;2.05;1.25;;;;;;;;;;5027422;28;20578;-68
2022/07/21 03:16:08;;;;;;;1.15;0.50;;;;;;;;;;5027727;28;20049;-68
2022/07/21 03:18:38;;;;;;;0.30;0.30;;;;;;;;;;5025829;28;20084;-68
2022/07/21 03:21:07;;;;;;;1.08;0.70;;;;;;;;;;5024685;28;20104;-69
2022/07/21 03:23:35;;;;;;;0.40;0.40;;;;;;;;;;5028432;28;20041;-68
2022/07/21 03:26:07;;;;;;;0.88;0.85;;;;;;;;;;5026930;28;20053;-69
2022/07/21 03:28:35;;;;;;;1.00;0.90;;;;;;;;;;5028613;28;20046;-68
2022/07/21 03:31:06;;;;;;;2.15;0.90;;;;;;;;;;5028033;28;20085;-69
2022/07/21 03:33:34;;;;;;;0.90;0.50;;;;;;;;;;5031839;28;20056;-69
2022/07/21 03:36:08;;;;;;;1.13;0.70;;;;;;;;;;5029865;28;20155;-69
2022/07/21 03:38:36;;;;;;;0.82;0.70;;;;;;;;;;5029617;28;20135;-68
2022/07/21 03:41:07;;;;;;;1.17;0.82;;;;;;;;;;5034514;28;20549;-68
2022/07/21 03:43:40;;;;;;;1.10;0.93;;;;;;;;;;5033616;28;20049;-68
2022/07/21 03:46:09;;;;;;;0.60;0.60;;;;;;;;;;5035944;28;20057;-69
2022/07/21 03:48:37;;;;;;;3.38;0.85;;;;;;;;;;5031879;28;20072;-68
2022/07/21 03:51:10;;;;;;;0.65;0.65;;;;;;;;;;5039079;28;20045;-69
2022/07/21 03:53:40;;;;;;;1.67;0.93;;;;;;;;;;5037298;28;20064;-69
2022/07/21 03:56:08;;;;;;;1.83;0.90;;;;;;;;;;5034059;28;20768;-68
2022/07/21 03:58:37;;;;;;;1.75;1.27;;;;;;;;;;5033097;28;20065;-68
2022/07/21 04:01:08;;;;;;;1.58;1.20;;;;;;;;;;5030286;28;20128;-68
2022/07/21 04:03:37;;;;;;;1.38;0.77;;;;;;;;;;5030225;28;20042;-68
2022/07/21 04:06:10;;;;;;;2.92;1.40;;;;;;;;;;5038574;28;20072;-69
2022/07/21 04:08:40;;;;;;;2.75;1.63;;;;;;;;;;5031683;28;20077;-68
2022/07/21 04:11:08;;;;;;;2.28;1.38;;;;;;;;;;5033087;28;20105;-68
2022/07/21 04:13:37;;;;;;;3.00;1.45;;;;;;;;;;5031997;28;20551;-68
2022/07/21 04:16:08;;;;;;;2.67;1.25;;;;;;;;;;5037578;28;20050;-69
2022/07/21 04:18:37;;;;;;;2.80;1.65;;;;;;;;;;5013117;28;20073;-68
2022/07/21 04:21:08;;;;;;;3.42;1.77;;;;;;;;;;5032439;28;20072;-69
2022/07/21 04:23:37;;;;;;;2.03;1.35;;;;;;;;;;5028265;28;20558;-68
2022/07/21 04:26:10;;;;;;;2.50;1.40;;;;;;;;;;5029472;28;20041;-68
2022/07/21 04:28:38;;;;;;;1.98;1.60;;;;;;;;;;5028865;28;20524;-70
2022/07/21 04:31:07;;;;;;;1.80;1.45;;;;;;;;;;5030953;28;20911;-69
2022/07/21 04:33:36;;;;;;;1.95;1.48;;;;;;;;;;5029661;28;20049;-70
2022/07/21 04:36:07;;;;;;;2.70;1.80;;;;;;;;;;5033118;28;20060;-70
2022/07/21 04:38:36;;;;;;;1.52;1.05;;;;;;;;;;5048629;28;20068;-70
2022/07/21 04:41:07;;;;;;;2.40;1.23;;;;;;;;;;5023290;28;20145;-69
2022/07/21 04:43:37;;;;;;;4.10;1.48;;;;;;;;;;5027784;28;20124;-70
2022/07/21 04:46:09;;;;;;;2.88;1.75;;;;;;;;;;5030407;28;20061;-69
2022/07/21 04:48:42;;;;;;;5.32;1.60;;;;;;;;;;5019239;28;20136;-69
2022/07/21 04:51:11;;;;;;;2.40;1.90;;;;;;;;;;5031063;28;20448;-69
2022/07/21 04:53:39;;;;;;;5.25;2.40;;;;;;;;;;5031539;28;20124;-68
2022/07/21 04:56:08;;;;;;;1.95;1.20;;;;;;;;;;5023647;28;20054;-69
2022/07/21 04:58:37;;;;;;;2.83;1.83;;;;;;;;;;5033335;28;20038;-69
2022/07/21 05:01:09;;;;;;;3.17;1.90;;;;;;;;;;5034262;28;20080;-69
2022/07/21 05:03:37;;;;;;;3.45;2.10;;;;;;;;;;5028685;28;20515;-69
2022/07/21 05:06:09;;;;;;;2.58;2.13;;;;;;;;;;5025105;28;20489;-68
2022/07/21 05:08:37;;;;;;;3.08;1.90;;;;;;;;;;5028830;28;20486;-68
2022/07/21 05:11:09;;;;;;;4.03;2.22;;;;;;;;;;5035239;28;20080;-69
2022/07/21 05:13:38;;;;;;;3.38;1.73;;;;;;;;;;5025979;28;20146;-69
2022/07/21 05:16:07;;;;;;;2.70;1.92;;;;;;;;;;5035936;28;20127;-69
2022/07/21 05:18:35;;;;;;;3.58;2.45;;;;;;;;;;5028388;28;20095;-68
2022/07/21 05:21:07;;;;;;;3.25;1.90;;;;;;;;;;5023803;28;20049;-70
2022/07/21 05:23:36;;;;;;;8.10;2.30;;;;;;;;;;5031028;28;20144;-68
2022/07/21 05:26:07;;;;;;;2.47;1.67;;;;;;;;;;5036725;28;20455;-68
2022/07/21 05:28:35;;;;;;;3.17;1.85;;;;;;;;;;5027427;28;20045;-69
2022/07/21 05:31:08;;;;;;;8.45;1.65;;;;;;;;;;5030637;28;20081;-69
2022/07/21 05:33:37;;;;;;;2.38;1.80;;;;;;;;;;5026829;28;20049;-72
2022/07/21 05:36:08;;;;;;;2.72;1.88;;;;;;;;;;5027215;28;20088;-72
2022/07/21 05:38:37;;;;;;;2.92;1.67;;;;;;;;;;5021034;28;20041;-72
2022/07/21 05:41:08;;;;;;;2.80;1.33;;;;;;;;;;5029061;28;20080;-71
2022/07/21 05:43:36;;;;;;;6.50;1.98;;;;;;;;;;5025655;28;20076;-71
2022/07/21 05:46:09;;;;;;;5.22;1.58;;;;;;;;;;5032061;28;20057;-72
2022/07/21 05:48:38;;;;;;;2.88;1.83;;;;;;;;;;5030817;28;20053;-72
2022/07/21 05:51:09;;;;;;;4.03;1.88;;;;;;;;;;5031973;28;20052;-72
2022/07/21 05:53:45;;;;;;;2.15;1.63;;;;;;;;;;5026183;28;20135;-72
2022/07/21 05:56:14;;;;;;;2.75;1.80;;;;;;;;;;5031437;28;20049;-72
2022/07/21 05:58:42;;;;;;;2.70;1.48;;;;;;;;;;5031502;28;20049;-73
2022/07/21 06:01:13;;;;;;;2.40;1.58;;;;;;;;;;5024767;28;20084;-73
2022/07/21 06:03:44;;;;;;;5.68;1.80;;;;;;;;;;5029189;28;20347;-71
2022/07/21 06:06:13;;;;;;;4.22;2.08;;;;;;;;;;5029165;28;20433;-70
2022/07/21 06:08:42;;;;;;;3.47;1.50;;;;;;;;;;5021876;28;20103;-70
2022/07/21 06:11:12;;;;;;;1.90;1.50;;;;;;;;;;5027186;28;20045;-71
2022/07/21 06:13:40;;;;;;;1.52;1.42;;;;;;;;;;5025670;28;20053;-70
2022/07/21 06:16:10;;;;;;;4.40;1.80;;;;;;;;;;5028203;28;20128;-70
2022/07/21 06:18:39;;;;;;;1.90;1.52;;;;;;;;;;5019745;28;20088;-71
2022/07/21 06:21:08;;;;;;;2.00;1.52;;;;;;;;;;5012727;28;20441;-70
2022/07/21 06:23:36;;;;;;;3.42;1.80;;;;;;;;;;5028174;28;20077;-70
2022/07/21 06:26:08;;;;;;;3.78;1.73;;;;;;;;;;5023153;28;20073;-69
2022/07/21 06:28:36;;;;;;;1.95;1.65;;;;;;;;;;5026431;28;20180;-70
2022/07/21 06:31:07;;;;;;;3.55;2.15;;;;;;;;;;5022431;28;20099;-70
2022/07/21 06:33:36;;;;;;;2.92;1.33;;;;;;;;;;5025508;28;20061;-70
2022/07/21 06:36:09;;;;;;;3.25;1.90;;;;;;;;;;5020464;28;20057;-70
2022/07/21 06:38:37;;;;;;;2.60;1.75;;;;;;;;;;5024231;28;20092;-70
2022/07/21 06:41:08;;;;;;;1.02;0.93;;;;;;;;;;5031583;28;20111;-70
2022/07/21 06:43:37;;;;;;;4.32;1.48;;;;;;;;;;5035277;28;20126;-70
2022/07/21 06:46:09;;;;;;;1.98;1.77;;;;;;;;;;5038478;28;20049;-71
2022/07/21 06:48:37;;;;;;;3.63;1.77;;;;;;;;;;5044378;28;20053;-71
2022/07/21 06:51:10;;;;;;;2.85;1.92;;;;;;;;;;5038410;28;20045;-69
2022/07/21 06:53:38;;;;;;;4.45;1.95;;;;;;;;;;5031697;28;20496;-69
2022/07/21 06:56:10;;;;;;;2.72;1.73;;;;;;;;;;5043293;28;20049;-69
2022/07/21 06:58:39;;;;;;;3.20;1.95;;;;;;;;;;5042501;28;20512;-69
2022/07/21 07:01:10;;;;;;;1.45;1.15;;;;;;;;;;5033468;28;20060;-70
2022/07/21 07:03:39;;;;;;;4.05;2.13;;;;;;;;;;5042828;28;20504;-69
2022/07/21 07:06:08;;;;;;;3.35;1.65;;;;;;;;;;5043923;28;20049;-69
2022/07/21 07:08:38;;;;;;;4.93;2.38;;;;;;;;;;5047194;28;20124;-69
2022/07/21 07:11:12;;;;;;;2.63;1.45;;;;;;;;;;5050340;28;20095;-69
2022/07/21 07:13:40;;;;;;;6.75;2.20;;;;;;;;;;5045493;28;20044;-69
2022/07/21 07:16:29;;;;;;;2.38;1.38;;;;;;;;;;5051448;28;20055;-69
2022/07/21 07:18:58;;;;;;;2.42;1.70;;;;;;;;;;5048416;28;20477;-69
2022/07/21 07:21:26;;;;;;;7.88;2.03;;;;;;;;;;5044657;28;20045;-69
2022/07/21 07:23:56;;;;;;;3.53;2.10;;;;;;;;;;5047635;28;20041;-69
2022/07/21 07:26:25;;;;;;;3.28;1.70;;;;;;;;;;5050618;28;20562;-69
2022/07/21 07:28:54;;;;;;;3.75;2.22;;;;;;;;;;5044672;28;20056;-69
2022/07/21 07:31:23;;;;;;;3.35;1.77;;;;;;;;;;5030092;28;20077;-69
2022/07/21 07:33:52;;;;;;;3.30;1.77;;;;;;;;;;5038964;28;20041;-69
2022/07/21 07:36:21;;;;;;;3.65;2.42;;;;;;;;;;5047101;28;20074;-69
2022/07/21 07:38:51;;;;;;;2.72;1.65;;;;;;;;;;5043584;28;20262;-69
2022/07/21 07:41:22;;;;;;;3.15;2.03;;;;;;;;;;5034416;28;20046;-69
2022/07/21 07:43:51;;;;;;;2.80;1.50;;;;;;;;;;5028356;28;20507;-69
2022/07/21 07:46:21;;;;;;;3.42;1.45;;;;;;;;;;5024600;28;20125;-69
2022/07/21 07:48:49;;;;;;;4.20;2.15;;;;;;;;;;5028875;28;20096;-69
2022/07/21 07:51:18;;;;;;;4.10;2.63;;;;;;;;;;5029877;28;20237;-70
2022/07/21 07:53:46;;;;;;;2.90;1.83;;;;;;;;;;5025251;28;20045;-69
2022/07/21 07:56:15;;;;;;;3.35;1.83;;;;;;;;;;5034508;28;20049;-69
2022/07/21 07:58:45;;;;;;;3.85;1.58;;;;;;;;;;5029704;28;20077;-69
2022/07/21 08:01:16;;;;;;;5.18;2.92;;;;;;;;;;5024213;28;20128;-69
2022/07/21 08:03:45;;;;;;;5.45;2.25;;;;;;;;;;5028271;28;20046;-69
2022/07/21 08:06:14;;;;;;;2.17;1.85;;;;;;;;;;5029190;28;20049;-69
2022/07/21 08:08:42;;;;;;;2.75;1.88;;;;;;;;;;5035607;28;20489;-69
2022/07/21 08:11:13;;;;;;;3.25;2.30;;;;;;;;;;5031154;28;20084;-69
2022/07/21 08:13:41;;;;;;;5.53;1.98;;;;;;;;;;5043175;28;20052;-69
2022/07/21 08:16:12;;;;;;;2.40;2.08;;;;;;;;;;5024909;28;20492;-69
2022/07/21 08:18:40;;;;;;;3.13;2.17;;;;;;;;;;5027349;28;20654;-69
2022/07/21 08:21:16;;;;;;;2.55;1.15;;;;;;;;;;5037336;28;20564;-69
2022/07/21 08:23:44;;;;;;;2.38;1.45;;;;;;;;;;5025795;28;20119;-69
2022/07/21 08:26:12;;;;;;;4.35;2.10;;;;;;;;;;5029306;28;20053;-69
2022/07/21 08:28:41;;;;;;;3.08;2.00;;;;;;;;;;5029390;28;20136;-69
2022/07/21 08:31:11;;;;;;;4.15;1.63;;;;;;;;;;5026493;28;20128;-69
2022/07/21 08:33:39;;;;;;;3.58;2.00;;;;;;;;;;5027429;28;20046;-69
2022/07/21 08:36:08;;;;;;;3.05;1.33;;;;;;;;;;5023666;28;20095;-69
2022/07/21 08:38:37;;;;;;;1.80;1.48;;;;;;;;;;5028299;28;20057;-69
2022/07/21 08:41:09;;;;;;;2.75;1.85;;;;;;;;;;5026413;28;20097;-69
2022/07/21 08:43:37;;;;;;;2.72;2.10;;;;;;;;;;5024926;28;20090;-69
2022/07/21 08:46:09;;;;;;;4.18;2.03;;;;;;;;;;5029047;28;20298;-69
2022/07/21 08:48:39;;;;;;;4.60;2.42;;;;;;;;;;5019834;28;20050;-69
2022/07/21 08:51:07;;;;;;;3.65;2.00;;;;;;;;;;5027764;28;20592;-69
2022/07/21 08:53:36;;;;;;;5.55;2.00;;;;;;;;;;5027248;28;20103;-69
2022/07/21 08:56:07;;;;;;;3.38;2.28;;;;;;;;;;5021334;28;20316;-69
2022/07/21 08:58:37;;;;;;;3.00;2.50;;;;;;;;;;5027316;28;20073;-69
2022/07/21 09:01:09;;;;;;;2.50;1.38;;;;;;;;;;5027485;28;20104;-69
2022/07/21 09:03:39;;;;;;;3.80;2.42;;;;;;;;;;5022747;28;20132;-69
2022/07/21 09:06:08;;;;;;;2.55;1.75;;;;;;;;;;5027589;28;20053;-69
2022/07/21 09:08:38;;;;;;;1.83;1.52;;;;;;;;;;5027050;28;20591;-69
2022/07/21 09:11:17;;;;;;;3.13;2.10;;;;;;;;;;5027562;28;20053;-69
2022/07/21 09:13:51;;;;;;;2.65;1.70;;;;;;;;;;5028670;28;20053;-69
2022/07/21 09:16:36;;;;;;;3.05;1.90;;;;;;;;;;5029011;28;20108;-70
2022/07/21 09:19:06;;;;;;;3.47;1.90;;;;;;;;;;5021292;28;20099;-69
2022/07/21 09:21:35;;;;;;;3.53;2.08;;;;;;;;;;5021536;28;20058;-69
2022/07/21 09:24:14;;;;;;;2.95;1.58;;;;;;;;;;5026902;28;20087;-69
2022/07/21 09:27:13;;;;;;;2.17;1.88;;;;;;;;;;5024627;28;20099;-69
2022/07/21 09:29:43;;;;;;;2.90;1.58;;;;;;;;;;4945619;29;20088;-69
2022/07/21 09:32:18;;;;;;;2.58;1.65;;;;;;;;;;5006845;28;20128;-69
2022/07/21 09:34:49;;;;;;;2.13;1.48;;;;;;;;;;5022182;28;20490;-69
2022/07/21 09:37:17;;;;;;;1.67;1.33;;;;;;;;;;5027140;28;20540;-69
2022/07/21 09:39:47;;;;;;;2.88;1.83;;;;;;;;;;5025016;28;20501;-69
2022/07/21 09:42:17;;;;;;;2.92;1.17;;;;;;;;;;5030701;28;20049;-69
2022/07/21 09:44:46;;;;;;;2.80;1.55;;;;;;;;;;5028271;28;20504;-69
2022/07/21 09:47:16;;;;;;;2.65;1.52;;;;;;;;;;5026970;28;20106;-69
2022/07/21 09:49:45;;;;;;;2.55;1.83;;;;;;;;;;5027672;28;20077;-69
2022/07/21 09:52:35;;;;;;;1.60;1.20;;;;;;;;;;5027106;28;20474;-69
2022/07/21 09:55:05;;;;;;;1.52;1.08;;;;;;;;;;5026944;28;20053;-69
2022/07/21 09:57:34;;;;;;;6.82;2.85;;;;;;;;;;5027601;28;20053;-69
2022/07/21 10:00:08;;;;;;;2.42;1.35;;;;;;;;;;5027427;28;20049;-69
2022/07/21 10:02:46;;;;;;;2.38;1.60;;;;;;;;;;5026763;28;20046;-69
2022/07/21 10:05:16;;;;;;;5.47;2.25;;;;;;;;;;5025517;28;20596;-69
2022/07/21 10:07:47;;;;;;;3.60;1.70;;;;;;;;;;5025961;28;20076;-69
2022/07/21 10:10:15;;;;;;;2.35;1.38;;;;;;;;;;5026775;28;20568;-69
2022/07/21 10:12:49;;;;;;;2.45;1.45;;;;;;;;;;5028643;28;20099;-69
2022/07/21 10:15:18;;;;;;;2.58;1.80;;;;;;;;;;5024981;28;20380;-69
2022/07/21 10:17:49;;;;;;;2.42;1.48;;;;;;;;;;5030065;28;20080;-70
2022/07/21 10:20:20;;;;;;;4.88;1.88;;;;;;;;;;5030147;28;20569;-69
2022/07/21 10:22:57;;;;;;;2.45;1.70;;;;;;;;;;5029507;28;20085;-69
2022/07/21 10:25:26;;;;;;;3.20;1.92;;;;;;;;;;5026541;28;20128;-69
2022/07/21 10:28:13;;;;;;;4.18;2.30;;;;;;;;;;5020589;28;20515;-69
2022/07/21 10:30:43;;;;;;;1.33;1.10;;;;;;;;;;5042449;28;20084;-70
2022/07/21 10:33:12;;;;;;;4.88;2.63;;;;;;;;;;5032299;28;20050;-69
2022/07/21 10:35:42;;;;;;;2.38;1.83;;;;;;;;;;5030941;28;20049;-70
2022/07/21 10:38:28;;;;;;;4.53;2.35;;;;;;;;;;5029985;28;20068;-69
2022/07/21 10:40:56;;;;;;;7.15;2.20;;;;;;;;;;5042571;28;20053;-69
2022/07/21 10:43:43;;;;;;;3.15;2.03;;;;;;;;;;5015016;28;20068;-69
2022/07/21 10:46:30;;;;;;;3.50;2.08;;;;;;;;;;5032298;28;20060;-69
2022/07/21 10:48:58;;;;;;;3.97;2.03;;;;;;;;;;5018364;28;20081;-69
2022/07/21 10:51:27;;;;;;;5.25;1.98;;;;;;;;;;5034166;28;20096;-69
2022/07/21 10:54:14;;;;;;;3.25;2.17;;;;;;;;;;5034204;28;20037;-69
2022/07/21 10:56:44;;;;;;;1.48;1.30;;;;;;;;;;5031962;28;20504;-70
2022/07/21 10:59:13;;;;;;;2.47;1.75;;;;;;;;;;5031568;28;20057;-72
2022/07/21 11:01:41;;;;;;;3.03;1.77;;;;;;;;;;5048207;28;20115;-71
2022/07/21 11:04:11;;;;;;;3.40;2.08;;;;;;;;;;5042577;28;20050;-71
2022/07/21 11:06:40;;;;;;;3.17;1.95;;;;;;;;;;5032034;28;20552;-71
2022/07/21 11:09:10;;;;;;;1.60;1.50;;;;;;;;;;5035612;28;20049;-71
2022/07/21 11:11:39;;;;;;;5.18;2.00;;;;;;;;;;5035074;28;20073;-71
2022/07/21 11:14:13;;;;;;;3.08;1.75;;;;;;;;;;5041974;28;20045;-71
2022/07/21 11:16:59;;;;;;;3.95;1.70;;;;;;;;;;5053323;28;20049;-71
2022/07/21 11:19:28;;;;;;;2.58;1.80;;;;;;;;;;5043162;28;20072;-72
2022/07/21 11:21:57;;;;;;;2.60;1.75;;;;;;;;;;5031610;28;20073;-71
2022/07/21 11:24:26;;;;;;;3.03;1.52;;;;;;;;;;5014994;28;20085;-71
2022/07/21 11:26:58;;;;;;;2.17;1.20;;;;;;;;;;5048439;28;20077;-71
2022/07/21 11:29:29;;;;;;;4.13;2.47;;;;;;;;;;5034344;28;20161;-71
2022/07/21 11:31:58;;;;;;;3.90;2.20;;;;;;;;;;5045599;28;20087;-71
2022/07/21 11:34:26;;;;;;;1.92;1.50;;;;;;;;;;5047937;28;20085;-71
2022/07/21 11:37:02;;;;;;;3.70;2.47;;;;;;;;;;5035651;28;20544;-71
2022/07/21 11:39:51;;;;;;;2.25;1.40;;;;;;;;;;5038621;28;20042;-71
2022/07/21 11:42:20;;;;;;;3.22;1.65;;;;;;;;;;5034852;28;20057;-71
2022/07/21 11:44:58;;;;;;;2.65;1.35;;;;;;;;;;5033797;28;20081;-71
2022/07/21 11:47:26;;;;;;;3.40;2.30;;;;;;;;;;5033780;28;20563;-71
2022/07/21 11:49:56;;;;;;;5.03;2.10;;;;;;;;;;5032757;28;20057;-71
2022/07/21 11:52:27;;;;;;;2.67;1.77;;;;;;;;;;5025188;28;20433;-69
2022/07/21 11:54:56;;;;;;;4.13;2.40;;;;;;;;;;5026795;28;20115;-69
2022/07/21 11:57:25;;;;;;;3.55;2.35;;;;;;;;;;5032915;28;20129;-69
2022/07/21 11:59:54;;;;;;;2.15;1.70;;;;;;;;;;5028591;28;20049;-69
2022/07/21 12:02:25;;;;;;;2.92;1.98;;;;;;;;;;5033154;28;20081;-68
2022/07/21 12:04:55;;;;;;;4.47;1.88;;;;;;;;;;5032724;28;20103;-68
2022/07/21 12:07:26;;;;;;;2.38;1.38;;;;;;;;;;5029731;28;20041;-69
2022/07/21 12:09:55;;;;;;;2.85;1.80;;;;;;;;;;5022252;28;20068;-69
2022/07/21 12:12:34;;;;;;;6.20;2.08;;;;;;;;;;5032753;28;20053;-69
2022/07/21 12:15:14;;;;;;;3.30;2.22;;;;;;;;;;5031056;28;20107;-69
2022/07/21 12:17:45;;;;;;;4.47;2.53;;;;;;;;;;5019527;28;20046;-69
2022/07/21 12:20:14;;;;;;;4.68;1.80;;;;;;;;;;5026793;28;20049;-69
2022/07/21 12:22:44;;;;;;;2.40;1.73;;;;;;;;;;5032115;28;20084;-69
2022/07/21 12:25:14;;;;;;;5.60;2.60;;;;;;;;;;5031686;28;20591;-69
2022/07/21 12:27:43;;;;;;;2.78;1.63;;;;;;;;;;5031799;28;20080;-69
2022/07/21 12:30:30;;;;;;;4.80;2.15;;;;;;;;;;5027639;28;20548;-69
2022/07/21 12:33:04;;;;;;;3.25;2.28;;;;;;;;;;5030390;28;20111;-69
2022/07/21 12:35:33;;;;;;;3.10;2.50;;;;;;;;;;5022267;28;20084;-69
2022/07/21 12:38:04;;;;;;;3.65;2.03;;;;;;;;;;5031347;28;20049;-69
2022/07/21 12:40:33;;;;;;;3.08;1.75;;;;;;;;;;5033791;28;20103;-69
2022/07/21 12:43:13;;;;;;;6.35;2.72;;;;;;;;;;5028732;28;20045;-69
2022/07/21 12:45:49;;;;;;;2.72;1.92;;;;;;;;;;5025016;28;20061;-69
2022/07/21 12:48:20;;;;;;;4.68;2.40;;;;;;;;;;5030644;28;20053;-69
2022/07/21 12:51:07;;;;;;;3.65;2.03;;;;;;;;;;5028476;28;20054;-69
2022/07/21 12:53:36;;;;;;;4.72;2.75;;;;;;;;;;5031565;28;20594;-69
2022/07/21 12:56:08;;;;;;;3.90;2.17;;;;;;;;;;5029327;28;20091;-70
2022/07/21 12:58:36;;;;;;;1.48;1.25;;;;;;;;;;5030425;28;20069;-69
2022/07/21 13:01:08;;;;;;;3.15;2.33;;;;;;;;;;5030780;28;20045;-69
2022/07/21 13:03:38;;;;;;;4.28;2.10;;;;;;;;;;5028825;28;20145;-69
2022/07/21 13:06:10;;;;;;;5.63;1.98;;;;;;;;;;5030050;28;20086;-69
2022/07/21 13:08:39;;;;;;;3.53;2.05;;;;;;;;;;5024076;28;20076;-69
2022/07/21 13:11:08;;;;;;;2.33;1.58;;;;;;;;;;5029700;28;20045;-69
2022/07/21 13:13:37;;;;;;;3.25;1.98;;;;;;;;;;5030255;28;20050;-70
2022/07/21 13:16:09;;;;;;;3.60;2.08;;;;;;;;;;5027575;28;20413;-69
2022/07/21 13:18:39;;;;;;;4.75;2.50;;;;;;;;;;5029570;28;20041;-71
2022/07/21 13:21:07;;;;;;;6.00;3.50;;;;;;;;;;5031036;28;20083;-71
2022/07/21 13:23:36;;;;;;;3.50;2.53;;;;;;;;;;5030683;28;20047;-71
2022/07/21 13:26:07;;;;;;;5.13;1.85;;;;;;;;;;5030161;28;20405;-71
2022/07/21 13:28:36;;;;;;;2.08;1.85;;;;;;;;;;5030918;28;20083;-72
2022/07/21 13:31:07;;;;;;;3.05;1.92;;;;;;;;;;5029053;28;20122;-72
2022/07/21 13:33:37;;;;;;;3.63;1.95;;;;;;;;;;5032315;28;20046;-72
2022/07/21 13:36:10;;;;;;;2.47;1.77;;;;;;;;;;5032435;28;20057;-71
2022/07/21 13:38:38;;;;;;;5.63;2.08;;;;;;;;;;5031519;28;20047;-71
2022/07/21 13:41:07;;;;;;;2.88;1.55;;;;;;;;;;5036968;28;20111;-71
2022/07/21 13:43:55;;;;;;;3.15;2.22;;;;;;;;;;5015076;28;20152;-71
2022/07/21 13:46:25;;;;;;;3.78;2.20;;;;;;;;;;5032865;28;20053;-71
2022/07/21 13:48:54;;;;;;;3.50;2.05;;;;;;;;;;5044446;28;20041;-71
2022/07/21 13:51:24;;;;;;;3.55;2.00;;;;;;;;;;5028821;28;20111;-67
2022/07/21 13:53:53;;;;;;;4.32;2.38;;;;;;;;;;5029702;28;20124;-67
2022/07/21 13:56:22;;;;;;;3.08;2.45;;;;;;;;;;5029634;28;20144;-67
2022/07/21 13:58:51;;;;;;;4.10;2.10;;;;;;;;;;5031584;28;20084;-67
2022/07/21 14:01:20;;;;;;;6.00;2.22;;;;;;;;;;5035014;28;20049;-68
2022/07/21 14:03:50;;;;;;;3.55;2.28;;;;;;;;;;5021181;28;20049;-67
2022/07/21 14:06:19;;;;;;;3.33;1.80;;;;;;;;;;5030189;28;20080;-67
2022/07/21 14:08:49;;;;;;;5.88;2.67;;;;;;;;;;5024399;28;20128;-67
2022/07/21 14:11:18;;;;;;;4.03;2.38;;;;;;;;;;5028433;28;20160;-67
2022/07/21 14:13:46;;;;;;;3.65;1.95;;;;;;;;;;5029043;28;20095;-66
2022/07/21 14:16:14;;;;;;;4.55;2.42;;;;;;;;;;5024856;28;20132;-67
2022/07/21 14:18:43;;;;;;;3.45;2.17;;;;;;;;;;5020403;28;20054;-67
2022/07/21 14:21:12;;;;;;;4.47;2.60;;;;;;;;;;5026728;28;20140;-67
2022/07/21 14:23:40;;;;;;;6.30;2.78;;;;;;;;;;5028355;28;20509;-67
2022/07/21 14:26:10;;;;;;;3.40;2.17;;;;;;;;;;5029733;28;20091;-66
2022/07/21 14:28:39;;;;;;;2.40;1.52;;;;;;;;;;5037690;28;20056;-67
2022/07/21 14:31:07;;;;;;;3.22;2.28;;;;;;;;;;5025040;28;20080;-67
2022/07/21 14:33:36;;;;;;;4.20;2.60;;;;;;;;;;5035324;28;21000;-67
2022/07/21 14:36:08;;;;;;;5.38;2.35;;;;;;;;;;5027456;28;20053;-67
2022/07/21 14:38:36;;;;;;;4.75;2.53;;;;;;;;;;5029903;28;20080;-67
2022/07/21 14:41:08;;;;;;;4.60;2.92;;;;;;;;;;5033533;28;20144;-67
2022/07/21 14:43:38;;;;;;;4.25;2.28;;;;;;;;;;5016389;28;20046;-67
2022/07/21 14:46:09;;;;;;;4.85;2.58;;;;;;;;;;5041485;28;20075;-67
2022/07/21 14:48:37;;;;;;;4.80;2.38;;;;;;;;;;5033373;28;20375;-66
2022/07/21 14:51:09;;;;;;;3.20;2.05;;;;;;;;;;5024856;28;20456;-67
2022/07/21 14:53:38;;;;;;;6.35;2.55;;;;;;;;;;5030717;28;20133;-66
2022/07/21 14:56:09;;;;;;;4.50;2.55;;;;;;;;;;5026744;28;20108;-67
2022/07/21 14:58:39;;;;;;;3.38;2.35;;;;;;;;;;5026491;28;20084;-66
2022/07/21 15:01:07;;;;;;;2.60;1.88;;;;;;;;;;5040082;28;20577;-66
2022/07/21 15:03:36;;;;;;;3.30;1.83;;;;;;;;;;5037437;28;20080;-67
2022/07/21 15:06:07;;;;;;;3.00;1.73;;;;;;;;;;5025145;28;20057;-67